createdAt,value
2023-05-10T00:00:32.579Z,65.6012
2023-05-10T00:01:34.268Z,65.6095
2023-05-10T00:02:35.854Z,65.1166
2023-05-10T00:03:37.501Z,64.9706
2023-05-10T00:04:39.121Z,65.2309
2023-05-10T00:05:40.789Z,65.4103
2023-05-10T00:06:42.377Z,65.5552
2023-05-10T00:07:44.033Z,65.4761
2023-05-10T00:08:45.655Z,65.2379
2023-05-10T00:09:47.305Z,64.8373
2023-05-10T00:10:48.989Z,65.1954
2023-05-10T00:11:50.558Z,65.5424
2023-05-10T00:12:52.239Z,65.4614
2023-05-10T00:13:53.815Z,65.1358
2023-05-10T00:14:55.488Z,65.1346
2023-05-10T00:15:57.156Z,65.1702
2023-05-10T00:16:58.824Z,64.5609
2023-05-10T00:18:00.500Z,64.7028
2023-05-10T00:19:01.990Z,65.2425
2023-05-10T00:20:03.740Z,65.1587
2023-05-10T00:21:05.385Z,64.8616
2023-05-10T00:22:07.009Z,64.6655
2023-05-10T00:23:08.652Z,64.7298
2023-05-10T00:24:10.349Z,64.6840
2023-05-10T00:25:11.977Z,64.3731
2023-05-10T00:26:13.623Z,64.7148
2023-05-10T00:27:15.239Z,65.1777
2023-05-10T00:28:16.862Z,65.1685
2023-05-10T00:29:18.464Z,64.8218
2023-05-10T00:30:20.097Z,64.6802
2023-05-10T00:31:21.744Z,64.7139
2023-05-10T00:32:23.503Z,64.5522
2023-05-10T00:33:25.091Z,64.2313
2023-05-10T00:34:26.697Z,64.5130
2023-05-10T00:35:28.349Z,64.9119
2023-05-10T00:36:29.978Z,64.8107
2023-05-10T00:37:31.664Z,64.4885
2023-05-10T00:38:33.207Z,64.2816
2023-05-10T00:39:34.881Z,64.2119
2023-05-10T00:40:36.595Z,64.2205
2023-05-10T00:41:38.179Z,64.0968
2023-05-10T00:42:39.781Z,63.9263
2023-05-10T00:43:41.458Z,64.1002
2023-05-10T00:44:43.045Z,64.3767
2023-05-10T00:45:44.749Z,64.2901
2023-05-10T00:46:46.348Z,64.0879
2023-05-10T00:47:48.079Z,64.0271
2023-05-10T00:48:49.674Z,63.9416
2023-05-10T00:49:51.249Z,64.0440
2023-05-10T00:50:52.969Z,63.9603
2023-05-10T00:51:55.180Z,63.7912
2023-05-10T00:52:57.127Z,64.3801
2023-05-10T00:53:57.839Z,64.4582
2023-05-10T00:54:59.543Z,64.1455
2023-05-10T00:56:01.161Z,64.0073
2023-05-10T00:57:02.831Z,63.8833
2023-05-10T00:58:04.388Z,63.8301
2023-05-10T00:59:06.018Z,63.8774
2023-05-10T01:00:07.745Z,63.6809
2023-05-10T01:01:09.313Z,63.5167
2023-05-10T01:02:12.752Z,64.1053
2023-05-10T01:03:12.736Z,64.0715
2023-05-10T01:04:14.241Z,63.8477
2023-05-10T01:05:16.048Z,63.7036
2023-05-10T01:06:17.460Z,63.6313
2023-05-10T01:07:19.224Z,63.5910
2023-05-10T01:08:20.755Z,63.8201
2023-05-10T01:09:22.435Z,63.5925
2023-05-10T01:10:24.072Z,63.4165
2023-05-10T01:11:25.702Z,63.7064
2023-05-10T01:12:27.372Z,63.7606
2023-05-10T01:13:29.104Z,63.6752
2023-05-10T01:14:30.622Z,63.6252
2023-05-10T01:15:32.309Z,63.5313
2023-05-10T01:16:33.999Z,63.4468
2023-05-10T01:17:35.803Z,63.5268
2023-05-10T01:18:37.138Z,63.4111
2023-05-10T01:19:38.852Z,63.4071
2023-05-10T01:20:40.469Z,63.7436
2023-05-10T01:21:42.144Z,63.4777
2023-05-10T01:22:43.793Z,63.3082
2023-05-10T01:23:45.406Z,63.2822
2023-05-10T01:24:47.037Z,63.2587
2023-05-10T01:25:48.680Z,63.1835
2023-05-10T01:26:50.317Z,63.4085
2023-05-10T01:27:52.212Z,63.2423
2023-05-10T01:28:53.646Z,63.2476
2023-05-10T01:30:05.907Z,63.4659
2023-05-10T01:30:56.891Z,63.3928
2023-05-10T01:31:58.541Z,63.2046
2023-05-10T01:33:00.250Z,63.1361
2023-05-10T01:34:01.905Z,63.0690
2023-05-10T01:35:03.514Z,63.0854
2023-05-10T01:36:05.247Z,63.2039
2023-05-10T01:37:06.828Z,63.1040
2023-05-10T01:38:08.439Z,63.2109
2023-05-10T01:39:10.057Z,63.4791
2023-05-10T01:40:11.653Z,63.4229
2023-05-10T01:41:13.339Z,63.1275
2023-05-10T01:42:14.948Z,63.1206
2023-05-10T01:43:16.660Z,63.2868
2023-05-10T01:44:18.274Z,63.2555
2023-05-10T01:45:19.905Z,63.2148
2023-05-10T01:46:21.580Z,63.5712
2023-05-10T01:47:23.194Z,63.3875
2023-05-10T01:48:24.871Z,63.1763
2023-05-10T01:49:26.556Z,63.0365
2023-05-10T01:50:28.100Z,62.9933
2023-05-10T01:51:29.750Z,62.8911
2023-05-10T01:52:31.445Z,62.8883
2023-05-10T01:53:33.244Z,62.9993
2023-05-10T01:54:34.653Z,63.1632
2023-05-10T01:55:36.340Z,63.1150
2023-05-10T01:56:37.884Z,63.0248
2023-05-10T01:57:39.524Z,62.9554
2023-05-10T01:58:41.191Z,62.9761
2023-05-10T01:59:42.816Z,62.9474
2023-05-10T02:00:44.435Z,62.8752
2023-05-10T02:01:46.128Z,62.9376
2023-05-10T02:02:47.777Z,63.2493
2023-05-10T02:03:49.448Z,63.0491
2023-05-10T02:04:52.197Z,63.2321
2023-05-10T02:05:53.708Z,63.1734
2023-05-10T02:06:55.328Z,63.0352
2023-05-10T02:07:56.096Z,62.9544
2023-05-10T02:08:58.344Z,63.0305
2023-05-10T02:09:59.484Z,63.1967
2023-05-10T02:11:01.990Z,63.1328
2023-05-10T02:12:03.704Z,63.1773
2023-05-10T02:13:04.261Z,63.4770
2023-05-10T02:14:06.230Z,63.4489
2023-05-10T02:15:07.631Z,63.2680
2023-05-10T02:16:09.261Z,63.0788
2023-05-10T02:17:10.806Z,63.0088
2023-05-10T02:18:12.507Z,63.0501
2023-05-10T02:19:14.141Z,63.1294
2023-05-10T02:20:16.460Z,63.0932
2023-05-10T02:21:17.419Z,63.1890
2023-05-10T02:22:19.081Z,63.2935
2023-05-10T02:23:20.679Z,63.3305
2023-05-10T02:24:22.360Z,63.2125
2023-05-10T02:25:24.043Z,63.1247
2023-05-10T02:26:25.626Z,63.0531
2023-05-10T02:27:27.257Z,63.0711
2023-05-10T02:28:28.945Z,63.2381
2023-05-10T02:29:30.704Z,63.3895
2023-05-10T02:30:32.268Z,63.6196
2023-05-10T02:31:34.015Z,63.5686
2023-05-10T02:32:35.629Z,63.4063
2023-05-10T02:33:37.153Z,63.3401
2023-05-10T02:34:38.907Z,63.2656
2023-05-10T02:35:40.465Z,63.1809
2023-05-10T02:36:42.168Z,63.2064
2023-05-10T02:37:43.806Z,63.2931
2023-05-10T02:38:45.365Z,63.4016
2023-05-10T02:39:47.116Z,63.6661
2023-05-10T02:40:48.702Z,63.5165
2023-05-10T02:41:50.285Z,63.4094
2023-05-10T02:42:51.957Z,63.2354
2023-05-10T02:43:53.632Z,63.1764
2023-05-10T02:44:55.226Z,63.1283
2023-05-10T02:45:57.274Z,63.2567
2023-05-10T02:46:58.478Z,63.3713
2023-05-10T02:48:00.246Z,63.4561
2023-05-10T02:49:01.795Z,63.5381
2023-05-10T02:50:03.426Z,63.9714
2023-05-10T02:51:05.088Z,63.6416
2023-05-10T02:52:06.748Z,63.5064
2023-05-10T02:53:08.333Z,64.0842
2023-05-10T02:54:10.080Z,64.6560
2023-05-10T02:55:11.645Z,64.6508
2023-05-10T02:56:13.355Z,64.3650
2023-05-10T02:57:15.009Z,63.9022
2023-05-10T02:58:16.609Z,63.5124
2023-05-10T02:59:18.213Z,63.1133
2023-05-10T03:00:19.929Z,62.6132
2023-05-10T03:01:21.517Z,62.2704
2023-05-10T03:02:23.190Z,61.7002
2023-05-10T03:03:24.775Z,61.3375
2023-05-10T03:04:26.472Z,61.2787
2023-05-10T03:05:28.100Z,61.3360
2023-05-10T03:06:29.752Z,61.3740
2023-05-10T03:07:31.356Z,61.3453
2023-05-10T03:08:33.041Z,61.3771
2023-05-10T03:09:34.703Z,61.3935
2023-05-10T03:10:36.351Z,61.4131
2023-05-10T03:11:38.090Z,61.7057
2023-05-10T03:12:39.582Z,61.5707
2023-05-10T03:13:41.282Z,61.5374
2023-05-10T03:14:42.858Z,61.3366
2023-05-10T03:15:44.608Z,61.3027
2023-05-10T03:16:46.337Z,61.1995
2023-05-10T03:17:47.795Z,61.2048
2023-05-10T03:18:49.453Z,61.2362
2023-05-10T03:19:51.143Z,61.1985
2023-05-10T03:20:52.800Z,61.2559
2023-05-10T03:21:54.565Z,61.4812
2023-05-10T03:22:56.025Z,61.5068
2023-05-10T03:23:57.689Z,61.3162
2023-05-10T03:24:59.342Z,61.2208
2023-05-10T03:26:01.024Z,61.1634
2023-05-10T03:27:02.629Z,61.2469
2023-05-10T03:28:04.249Z,61.5017
2023-05-10T03:29:05.897Z,61.3944
2023-05-10T03:30:07.488Z,61.2245
2023-05-10T03:31:09.204Z,61.1224
2023-05-10T03:32:10.817Z,61.0377
2023-05-10T03:33:12.422Z,61.0291
2023-05-10T03:34:14.108Z,61.1359
2023-05-10T03:35:15.823Z,61.2362
2023-05-10T03:36:17.487Z,61.2158
2023-05-10T03:37:19.039Z,61.1386
2023-05-10T03:38:20.725Z,61.0849
2023-05-10T03:39:22.378Z,60.9971
2023-05-10T03:40:23.937Z,61.1897
2023-05-10T03:41:25.572Z,61.1766
2023-05-10T03:42:27.331Z,61.0286
2023-05-10T03:43:28.848Z,60.8790
2023-05-10T03:44:30.513Z,60.8471
2023-05-10T03:45:32.218Z,60.6949
2023-05-10T03:46:33.834Z,60.7243
2023-05-10T03:47:35.479Z,60.9285
2023-05-10T03:48:37.096Z,60.8864
2023-05-10T03:49:38.709Z,60.7578
2023-05-10T03:50:40.389Z,60.9001
2023-05-10T03:51:42.110Z,61.0650
2023-05-10T03:52:43.684Z,61.1519
2023-05-10T03:53:45.277Z,61.3421
2023-05-10T03:54:46.932Z,61.3061
2023-05-10T03:55:48.597Z,61.2237
2023-05-10T03:56:50.256Z,61.0245
2023-05-10T03:57:51.918Z,60.9765
2023-05-10T03:58:53.476Z,60.9586
2023-05-10T03:59:55.049Z,61.1393
2023-05-10T04:00:56.700Z,61.1893
2023-05-10T04:01:58.368Z,61.2085
2023-05-10T04:03:00.121Z,61.0942
2023-05-10T04:04:01.624Z,61.0138
2023-05-10T04:05:03.285Z,60.8416
2023-05-10T04:06:04.939Z,60.7417
2023-05-10T04:07:06.531Z,60.6469
2023-05-10T04:08:08.212Z,60.6882
2023-05-10T04:09:09.819Z,60.6290
2023-05-10T04:10:11.499Z,60.7001
2023-05-10T04:11:15.724Z,60.6946
2023-05-10T04:12:14.747Z,60.7422
2023-05-10T04:13:16.552Z,60.6853
2023-05-10T04:14:18.043Z,60.6132
2023-05-10T04:15:19.671Z,60.5171
2023-05-10T04:16:21.323Z,60.5087
2023-05-10T04:17:23.075Z,60.5166
2023-05-10T04:18:24.656Z,60.5661
2023-05-10T04:19:27.273Z,60.5473
2023-05-10T04:20:27.932Z,60.3955
2023-05-10T04:21:29.568Z,60.3350
2023-05-10T04:22:31.175Z,60.2449
2023-05-10T04:23:32.930Z,60.2609
2023-05-10T04:24:34.580Z,60.1430
2023-05-10T04:25:37.256Z,60.1659
2023-05-10T04:26:37.830Z,60.1714
2023-05-10T04:27:39.429Z,60.2165
2023-05-10T04:28:41.227Z,60.1911
2023-05-10T04:29:42.794Z,60.1118
2023-05-10T04:30:44.420Z,60.2996
2023-05-10T04:31:46.066Z,60.4529
2023-05-10T04:32:48.721Z,60.4561
2023-05-10T04:33:49.347Z,60.3869
2023-05-10T04:34:50.972Z,60.3446
2023-05-10T04:35:52.597Z,60.3776
2023-05-10T04:36:54.295Z,60.2829
2023-05-10T04:37:55.833Z,60.2692
2023-05-10T04:38:57.606Z,60.1770
2023-05-10T04:39:59.160Z,60.2173
2023-05-10T04:41:00.797Z,60.2527
2023-05-10T04:42:02.533Z,60.1733
2023-05-10T04:43:04.209Z,60.3823
2023-05-10T04:44:06.003Z,60.4194
2023-05-10T04:45:07.520Z,60.4068
2023-05-10T04:46:09.168Z,60.2645
2023-05-10T04:47:12.676Z,60.1557
2023-05-10T04:48:12.474Z,60.0828
2023-05-10T04:49:14.101Z,59.9757
2023-05-10T04:50:15.969Z,59.9282
2023-05-10T04:51:17.473Z,59.9233
2023-05-10T04:52:18.959Z,59.8001
2023-05-10T04:53:20.684Z,59.5666
2023-05-10T04:54:23.040Z,58.9174
2023-05-10T04:55:23.989Z,57.9796
2023-05-10T04:56:25.574Z,57.0973
2023-05-10T04:57:27.234Z,56.3259
2023-05-10T04:58:28.830Z,55.2575
2023-05-10T04:59:30.938Z,54.3050
2023-05-10T05:00:32.138Z,53.6122
2023-05-10T05:01:33.955Z,52.1494
2023-05-10T05:02:35.483Z,51.5683
2023-05-10T05:03:38.076Z,51.2747
2023-05-10T05:04:38.632Z,50.9309
2023-05-10T05:05:40.349Z,50.4216
2023-05-10T05:06:42.912Z,49.0471
2023-05-10T05:07:43.568Z,48.6629
2023-05-10T05:08:45.280Z,48.8755
2023-05-10T05:09:46.832Z,48.7629
2023-05-10T05:10:48.614Z,48.4717
2023-05-10T05:11:50.173Z,48.1088
2023-05-10T05:12:51.925Z,47.0434
2023-05-10T05:13:53.518Z,46.9724
2023-05-10T05:14:55.081Z,47.4308
2023-05-10T05:15:57.009Z,47.4165
2023-05-10T05:16:58.422Z,47.1425
2023-05-10T05:18:00.110Z,46.2537
2023-05-10T05:19:01.686Z,45.6456
2023-05-10T05:20:03.336Z,45.8349
2023-05-10T05:21:04.954Z,46.3549
2023-05-10T05:22:06.641Z,46.2952
2023-05-10T05:23:08.257Z,45.9415
2023-05-10T05:24:09.906Z,45.0035
2023-05-10T05:25:11.532Z,44.7559
2023-05-10T05:26:13.214Z,45.3132
2023-05-10T05:27:14.849Z,46.2223
2023-05-10T05:28:16.402Z,46.0501
2023-05-10T05:29:18.055Z,46.0706
2023-05-10T05:30:19.804Z,44.6436
2023-05-10T05:31:22.413Z,45.1887
2023-05-10T05:32:22.959Z,45.8687
2023-05-10T05:33:24.611Z,46.2346
2023-05-10T05:34:26.475Z,45.9957
2023-05-10T05:35:28.927Z,46.0337
2023-05-10T05:36:29.543Z,44.6513
2023-05-10T05:37:31.482Z,45.4160
2023-05-10T05:38:33.817Z,45.9096
2023-05-10T05:39:35.331Z,45.6206
2023-05-10T05:40:36.164Z,45.7302
2023-05-10T05:41:38.761Z,44.8287
2023-05-10T05:42:40.491Z,44.4602
2023-05-10T05:43:40.957Z,44.9137
2023-05-10T05:44:42.941Z,45.3983
2023-05-10T05:45:45.381Z,45.2795
2023-05-10T05:46:45.972Z,45.0863
2023-05-10T05:47:48.585Z,44.0432
2023-05-10T05:48:49.297Z,44.3092
2023-05-10T05:49:50.925Z,45.2120
2023-05-10T05:50:52.527Z,45.5292
2023-05-10T05:51:54.462Z,45.6708
2023-05-10T05:52:56.793Z,45.0043
2023-05-10T05:53:57.510Z,44.4655
2023-05-10T05:54:59.091Z,44.4231
2023-05-10T05:56:00.882Z,45.4132
2023-05-10T05:57:02.460Z,45.6018
2023-05-10T05:58:04.062Z,45.8878
2023-05-10T05:59:05.690Z,44.8139
2023-05-10T06:00:07.409Z,44.3959
2023-05-10T06:01:08.972Z,44.8814
2023-05-10T06:02:10.746Z,45.7535
2023-05-10T06:03:13.360Z,45.5339
2023-05-10T06:04:13.974Z,45.5437
2023-05-10T06:05:16.612Z,44.0325
2023-05-10T06:06:17.281Z,44.1893
2023-05-10T06:07:19.857Z,44.9592
2023-05-10T06:08:20.529Z,45.5303
2023-05-10T06:09:22.189Z,45.2692
2023-05-10T06:10:23.802Z,44.7887
2023-05-10T06:11:26.409Z,43.5811
2023-05-10T06:12:27.358Z,44.5173
2023-05-10T06:13:29.936Z,45.3379
2023-05-10T06:14:30.298Z,45.3107
2023-05-10T06:15:32.048Z,44.9916
2023-05-10T06:16:34.713Z,43.6097
2023-05-10T06:17:35.271Z,43.6592
2023-05-10T06:18:36.939Z,44.6624
2023-05-10T06:19:38.526Z,45.3839
2023-05-10T06:20:40.241Z,45.1746
2023-05-10T06:21:41.862Z,44.8679
2023-05-10T06:22:43.620Z,43.4415
2023-05-10T06:23:45.133Z,44.1024
2023-05-10T06:24:46.756Z,45.2670
2023-05-10T06:25:48.451Z,45.3141
2023-05-10T06:26:50.136Z,45.1106
2023-05-10T06:27:53.651Z,43.9434
2023-05-10T06:28:53.403Z,43.6013
2023-05-10T06:30:02.177Z,44.7038
2023-05-10T06:30:56.631Z,45.1468
2023-05-10T06:31:58.458Z,44.7862
2023-05-10T06:32:59.998Z,44.2007
2023-05-10T06:34:01.542Z,43.4309
2023-05-10T06:35:03.200Z,43.4428
2023-05-10T06:36:04.887Z,44.3444
2023-05-10T06:37:06.490Z,44.8235
2023-05-10T06:38:08.260Z,44.9357
2023-05-10T06:39:09.769Z,43.5567
2023-05-10T06:40:11.497Z,42.7165
2023-05-10T06:41:13.114Z,43.9784
2023-05-10T06:42:14.828Z,44.9439
2023-05-10T06:43:17.354Z,44.8399
2023-05-10T06:44:18.059Z,44.5769
2023-05-10T06:45:19.808Z,43.0354
2023-05-10T06:46:21.284Z,43.0742
2023-05-10T06:47:22.995Z,44.5842
2023-05-10T06:48:24.637Z,44.9550
2023-05-10T06:49:26.226Z,44.6266
2023-05-10T06:50:27.790Z,43.3944
2023-05-10T06:51:29.457Z,42.7611
2023-05-10T06:52:31.107Z,43.5641
2023-05-10T06:53:32.770Z,44.4014
2023-05-10T06:54:34.385Z,44.7311
2023-05-10T06:55:36.084Z,44.3210
2023-05-10T06:56:37.664Z,42.8643
2023-05-10T06:57:39.442Z,42.9198
2023-05-10T06:58:42.003Z,43.3231
2023-05-10T06:59:42.665Z,44.4838
2023-05-10T07:00:44.330Z,44.2992
2023-05-10T07:01:45.945Z,43.9262
2023-05-10T07:02:47.569Z,42.8401
2023-05-10T07:03:49.398Z,42.7064
2023-05-10T07:04:50.901Z,43.3928
2023-05-10T07:05:52.455Z,44.1049
2023-05-10T07:06:54.087Z,44.1949
2023-05-10T07:07:55.761Z,43.3081
2023-05-10T07:08:58.385Z,42.0571
2023-05-10T07:09:59.058Z,42.4842
2023-05-10T07:11:00.656Z,43.1738
2023-05-10T07:12:02.350Z,43.9925
2023-05-10T07:13:04.009Z,43.5607
2023-05-10T07:14:05.657Z,41.8330
2023-05-10T07:15:07.286Z,41.4129
2023-05-10T07:16:08.963Z,42.0840
2023-05-10T07:17:10.586Z,44.0536
2023-05-10T07:18:12.210Z,44.4062
2023-05-10T07:19:13.788Z,43.2309
2023-05-10T07:20:15.564Z,41.3449
2023-05-10T07:21:17.106Z,41.2209
2023-05-10T07:22:18.746Z,43.1381
2023-05-10T07:23:20.402Z,45.0779
2023-05-10T07:24:22.396Z,44.4795
2023-05-10T07:25:23.647Z,43.2239
2023-05-10T07:26:25.882Z,41.6745
2023-05-10T07:27:27.796Z,42.2974
2023-05-10T07:28:28.691Z,44.0639
2023-05-10T07:29:30.303Z,44.3765
2023-05-10T07:30:32.021Z,43.4642
2023-05-10T07:31:33.495Z,40.8860
2023-05-10T07:32:35.300Z,41.1095
2023-05-10T07:33:36.809Z,43.3139
2023-05-10T07:34:38.496Z,45.1955
2023-05-10T07:35:40.111Z,44.3323
2023-05-10T07:36:41.691Z,42.4505
2023-05-10T07:37:43.281Z,41.0672
2023-05-10T07:38:45.003Z,42.6466
2023-05-10T07:39:48.420Z,44.6307
2023-05-10T07:40:48.823Z,44.4291
2023-05-10T07:41:49.917Z,42.7524
2023-05-10T07:42:51.517Z,40.8595
2023-05-10T07:43:53.731Z,41.8010
2023-05-10T07:44:54.885Z,44.3018
2023-05-10T07:45:56.544Z,44.6352
2023-05-10T07:46:58.769Z,42.2199
2023-05-10T07:47:59.804Z,40.7277
2023-05-10T07:49:01.405Z,42.4282
2023-05-10T07:50:03.074Z,44.7219
2023-05-10T07:51:04.792Z,44.8490
2023-05-10T07:52:06.405Z,43.3468
2023-05-10T07:53:08.002Z,41.0762
2023-05-10T07:54:09.641Z,42.1857
2023-05-10T07:55:11.338Z,43.5332
2023-05-10T07:56:12.953Z,44.5370
2023-05-10T07:57:14.596Z,43.4140
2023-05-10T07:58:16.236Z,41.2247
2023-05-10T07:59:17.932Z,41.2727
2023-05-10T08:00:19.828Z,42.5840
2023-05-10T08:01:21.619Z,44.8039
2023-05-10T08:02:22.911Z,45.7754
2023-05-10T08:03:24.647Z,45.2096
2023-05-10T08:04:26.269Z,44.5375
2023-05-10T08:05:27.936Z,45.6687
2023-05-10T08:06:29.568Z,47.7809
2023-05-10T08:07:31.233Z,48.6769
2023-05-10T08:08:33.775Z,48.8691
2023-05-10T08:09:34.503Z,45.8834
2023-05-10T08:10:36.194Z,45.9056
2023-05-10T08:11:37.886Z,47.7952
2023-05-10T08:12:39.414Z,49.6363
2023-05-10T08:13:41.059Z,50.2626
2023-05-10T08:14:42.647Z,49.5613
2023-05-10T08:15:44.453Z,46.6508
2023-05-10T08:16:45.986Z,46.5341
2023-05-10T08:17:48.680Z,48.8212
2023-05-10T08:18:49.204Z,50.6548
2023-05-10T08:19:50.892Z,50.7592
2023-05-10T08:20:53.536Z,49.9507
2023-05-10T08:21:54.194Z,47.3147
2023-05-10T08:22:55.804Z,48.1492
2023-05-10T08:23:57.556Z,50.5566
2023-05-10T08:24:59.073Z,51.5917
2023-05-10T08:26:01.017Z,52.3763
2023-05-10T08:27:02.498Z,50.2425
2023-05-10T08:28:04.147Z,48.4431
2023-05-10T08:29:05.730Z,49.0448
2023-05-10T08:30:07.424Z,51.3590
2023-05-10T08:31:09.147Z,52.2579
2023-05-10T08:32:10.720Z,52.1628
2023-05-10T08:33:12.426Z,50.4534
2023-05-10T08:34:14.039Z,48.9136
2023-05-10T08:35:15.852Z,49.5009
2023-05-10T08:36:17.362Z,51.3049
2023-05-10T08:37:19.012Z,52.0513
2023-05-10T08:38:21.533Z,51.9649
2023-05-10T08:39:29.847Z,50.1102
2023-05-10T08:40:23.878Z,48.4348
2023-05-10T08:41:25.511Z,49.1013
2023-05-10T08:42:27.187Z,51.2786
2023-05-10T08:43:29.765Z,52.5946
2023-05-10T08:44:30.431Z,52.1558
2023-05-10T08:45:32.087Z,50.4229
2023-05-10T08:46:33.770Z,49.0511
2023-05-10T08:47:35.365Z,49.7911
2023-05-10T08:48:37.025Z,52.0209
2023-05-10T08:49:38.654Z,52.5432
2023-05-10T08:50:40.592Z,52.8380
2023-05-10T08:51:43.823Z,51.4420
2023-05-10T08:52:43.565Z,50.0386
2023-05-10T08:53:45.492Z,50.6568
2023-05-10T08:54:47.695Z,52.8420
2023-05-10T08:55:48.386Z,53.5169
2023-05-10T08:56:50.192Z,53.5238
2023-05-10T08:57:51.642Z,52.1697
2023-05-10T08:58:53.444Z,50.5946
2023-05-10T08:59:55.002Z,51.3988
2023-05-10T09:00:56.801Z,53.0264
2023-05-10T09:01:58.374Z,53.5857
2023-05-10T09:03:00.038Z,54.0671
2023-05-10T09:04:02.045Z,52.8958
2023-05-10T09:05:03.413Z,50.7309
2023-05-10T09:06:05.063Z,51.1234
2023-05-10T09:07:06.623Z,52.8947
2023-05-10T09:08:08.324Z,53.1061
2023-05-10T09:09:09.852Z,53.4358
2023-05-10T09:10:11.541Z,51.4969
2023-05-10T09:11:13.192Z,49.6262
2023-05-10T09:12:14.810Z,49.7508
2023-05-10T09:13:16.527Z,51.5124
2023-05-10T09:14:18.122Z,52.3504
2023-05-10T09:15:19.831Z,51.9524
2023-05-10T09:16:22.460Z,50.4670
2023-05-10T09:17:23.152Z,49.0713
2023-05-10T09:18:26.018Z,49.0365
2023-05-10T09:19:27.400Z,50.9086
2023-05-10T09:20:27.884Z,51.7561
2023-05-10T09:21:29.505Z,52.2833
2023-05-10T09:22:31.282Z,50.0028
2023-05-10T09:23:32.764Z,49.2837
2023-05-10T09:24:35.416Z,49.7190
2023-05-10T09:25:36.094Z,51.6945
2023-05-10T09:26:37.747Z,52.0147
2023-05-10T09:27:39.345Z,52.8162
2023-05-10T09:28:41.088Z,50.8628
2023-05-10T09:29:42.624Z,49.6385
2023-05-10T09:30:44.340Z,50.2858
2023-05-10T09:31:45.928Z,51.8348
2023-05-10T09:32:47.643Z,52.1628
2023-05-10T09:33:49.214Z,52.9954
2023-05-10T09:34:50.847Z,50.5532
2023-05-10T09:35:52.586Z,49.2150
2023-05-10T09:36:54.121Z,50.3463
2023-05-10T09:37:55.861Z,51.5694
2023-05-10T09:38:57.535Z,52.2346
2023-05-10T09:39:59.076Z,53.0826
2023-05-10T09:41:00.817Z,49.9751
2023-05-10T09:42:02.362Z,49.3016
2023-05-10T09:43:04.037Z,49.9887
2023-05-10T09:44:05.686Z,51.4510
2023-05-10T09:45:07.320Z,51.5556
2023-05-10T09:46:09.003Z,52.0024
2023-05-10T09:47:10.564Z,49.3974
2023-05-10T09:48:12.462Z,48.7206
2023-05-10T09:49:13.853Z,49.4298
2023-05-10T09:50:15.563Z,51.0137
2023-05-10T09:51:17.235Z,51.2668
2023-05-10T09:52:18.834Z,51.5560
2023-05-10T09:53:20.468Z,48.8863
2023-05-10T09:54:22.110Z,48.7127
2023-05-10T09:55:23.765Z,50.0367
2023-05-10T09:56:25.431Z,51.0276
2023-05-10T09:57:27.038Z,51.2080
2023-05-10T09:58:28.733Z,51.5475
2023-05-10T09:59:30.325Z,48.9957
2023-05-10T10:00:31.975Z,48.8704
2023-05-10T10:01:33.705Z,49.7439
2023-05-10T10:02:35.283Z,51.2382
2023-05-10T10:03:36.936Z,51.2830
2023-05-10T10:04:38.545Z,51.4876
2023-05-10T10:05:40.274Z,48.9527
2023-05-10T10:06:41.831Z,48.9194
2023-05-10T10:07:43.476Z,50.2759
2023-05-10T10:08:45.192Z,52.0990
2023-05-10T10:09:46.827Z,51.4889
2023-05-10T10:10:48.437Z,51.2979
2023-05-10T10:11:50.064Z,48.9639
2023-05-10T10:12:51.666Z,49.3645
2023-05-10T10:13:53.362Z,50.9970
2023-05-10T10:14:54.971Z,51.7272
2023-05-10T10:15:56.627Z,51.8088
2023-05-10T10:17:06.787Z,50.7868
2023-05-10T10:18:00.044Z,48.7038
2023-05-10T10:19:01.700Z,48.9521
2023-05-10T10:20:03.266Z,50.8227
2023-05-10T10:21:04.804Z,51.0982
2023-05-10T10:22:06.583Z,51.2100
2023-05-10T10:23:08.134Z,50.4873
2023-05-10T10:24:09.857Z,47.1436
2023-05-10T10:25:11.381Z,46.4594
2023-05-10T10:26:13.106Z,46.0037
2023-05-10T10:27:14.692Z,46.3826
2023-05-10T10:28:16.271Z,45.6412
2023-05-10T10:29:17.991Z,43.0688
2023-05-10T10:30:19.731Z,42.8256
2023-05-10T10:31:21.323Z,42.4622
2023-05-10T10:32:23.022Z,42.7282
2023-05-10T10:33:28.739Z,43.0873
2023-05-10T10:34:26.234Z,42.2146
2023-05-10T10:35:27.890Z,40.8585
2023-05-10T10:36:29.554Z,40.9825
2023-05-10T10:37:31.096Z,40.4518
2023-05-10T10:38:32.773Z,40.6728
2023-05-10T10:39:34.467Z,40.6654
2023-05-10T10:40:36.083Z,39.6852
2023-05-10T10:41:37.717Z,39.9157
2023-05-10T10:42:39.358Z,40.7562
2023-05-10T10:43:40.997Z,41.1888
2023-05-10T10:44:42.614Z,43.0622
2023-05-10T10:45:44.238Z,44.8640
2023-05-10T10:46:45.946Z,43.7028
2023-05-10T10:47:47.642Z,42.7471
2023-05-10T10:48:49.139Z,43.2561
2023-05-10T10:49:51.547Z,43.8853
2023-05-10T10:50:52.611Z,45.0059
2023-05-10T10:51:54.079Z,45.6454
2023-05-10T10:52:55.830Z,44.3222
2023-05-10T10:53:57.402Z,43.6426
2023-05-10T10:54:59.175Z,44.0224
2023-05-10T10:56:00.744Z,44.9357
2023-05-10T10:57:02.348Z,46.4500
2023-05-10T10:58:03.980Z,45.9847
2023-05-10T10:59:05.653Z,44.4208
2023-05-10T11:00:07.295Z,44.1628
2023-05-10T11:01:08.939Z,44.3829
2023-05-10T11:02:10.587Z,45.3387
2023-05-10T11:03:12.246Z,47.3622
2023-05-10T11:04:14.052Z,45.6581
2023-05-10T11:05:15.602Z,44.0005
2023-05-10T11:06:17.152Z,43.8683
2023-05-10T11:07:18.820Z,44.1267
2023-05-10T11:08:20.400Z,45.1072
2023-05-10T11:09:21.982Z,46.4978
2023-05-10T11:10:24.038Z,45.1294
2023-05-10T11:11:25.286Z,43.2524
2023-05-10T11:12:27.105Z,43.5311
2023-05-10T11:13:28.567Z,43.5289
2023-05-10T11:14:30.363Z,44.7844
2023-05-10T11:15:31.988Z,46.4901
2023-05-10T11:16:33.553Z,44.2296
2023-05-10T11:17:35.231Z,43.0203
2023-05-10T11:18:36.916Z,43.5171
2023-05-10T11:19:38.448Z,43.5730
2023-05-10T11:20:40.203Z,44.5388
2023-05-10T11:21:41.718Z,45.9943
2023-05-10T11:22:43.471Z,44.6695
2023-05-10T11:23:45.066Z,43.5089
2023-05-10T11:24:47.860Z,43.6283
2023-05-10T11:25:48.382Z,44.3983
2023-05-10T11:26:50.000Z,46.2283
2023-05-10T11:27:51.603Z,46.7565
2023-05-10T11:28:53.280Z,45.2300
2023-05-10T11:29:54.881Z,44.0582
2023-05-10T11:30:56.625Z,44.5823
2023-05-10T11:31:58.183Z,45.2482
2023-05-10T11:32:59.816Z,47.3402
2023-05-10T11:34:01.464Z,47.6053
2023-05-10T11:35:03.090Z,46.4919
2023-05-10T11:36:04.810Z,44.7389
2023-05-10T11:37:06.354Z,45.3440
2023-05-10T11:38:08.031Z,46.6310
2023-05-10T11:39:09.667Z,48.5247
2023-05-10T11:40:11.386Z,47.7946
2023-05-10T11:41:12.966Z,47.3386
2023-05-10T11:42:15.362Z,45.4521
2023-05-10T11:43:16.209Z,45.5816
2023-05-10T11:44:17.923Z,46.3685
2023-05-10T11:45:19.549Z,48.6901
2023-05-10T11:46:21.307Z,48.2252
2023-05-10T11:47:22.918Z,47.8329
2023-05-10T11:48:24.490Z,45.7089
2023-05-10T11:49:26.159Z,45.6152
2023-05-10T11:50:27.724Z,45.6042
2023-05-10T11:51:29.489Z,47.2141
2023-05-10T11:52:31.086Z,46.0734
2023-05-10T11:53:32.677Z,42.7271
2023-05-10T11:54:34.433Z,41.6741
2023-05-10T11:55:35.939Z,41.2702
2023-05-10T11:56:37.666Z,40.8485
2023-05-10T11:57:39.564Z,40.9088
2023-05-10T11:58:40.930Z,40.0825
2023-05-10T11:59:43.331Z,38.2720
2023-05-10T12:00:44.173Z,38.8179
2023-05-10T12:01:45.903Z,38.0426
2023-05-10T12:02:47.585Z,38.3644
2023-05-10T12:03:49.226Z,38.5006
2023-05-10T12:04:50.873Z,37.1813
2023-05-10T12:05:52.404Z,36.6274
2023-05-10T12:06:54.116Z,37.6237
2023-05-10T12:07:55.736Z,37.9258
2023-05-10T12:08:57.310Z,39.4072
2023-05-10T12:09:59.054Z,40.1361
2023-05-10T12:11:00.609Z,39.0592
2023-05-10T12:12:02.295Z,39.5552
2023-05-10T12:13:03.899Z,40.6447
2023-05-10T12:14:05.638Z,41.3343
2023-05-10T12:15:07.213Z,43.2182
2023-05-10T12:16:08.805Z,42.8581
2023-05-10T12:17:10.470Z,40.9310
2023-05-10T12:18:12.192Z,41.4685
2023-05-10T12:19:13.768Z,42.3321
2023-05-10T12:20:15.612Z,43.9585
2023-05-10T12:21:17.026Z,46.0868
2023-05-10T12:22:18.717Z,43.7266
2023-05-10T12:23:20.315Z,41.8618
2023-05-10T12:24:21.943Z,42.8919
2023-05-10T12:25:23.629Z,43.5063